sensor_id;sensor_type;location;lat;lon;timestamp;temperature;humidity
59961;DHT22;55902;-37.980;-63.602;2023-04-12T00:00:32;16.10;93.40
59961;DHT22;55902;-37.980;-63.602;2023-04-12T00:03:04;16.00;94.40
59961;DHT22;55902;-37.980;-63.602;2023-04-12T00:05:35;15.90;94.00
59961;DHT22;55902;-37.980;-63.602;2023-04-12T00:08:03;15.90;93.90
59961;DHT22;55902;-37.980;-63.602;2023-04-12T00:10:31;15.80;93.70
59961;DHT22;55902;-37.980;-63.602;2023-04-12T00:12:59;15.70;94.10
59961;DHT22;55902;-37.980;-63.602;2023-04-12T00:15:31;15.70;94.30
59961;DHT22;55902;-37.980;-63.602;2023-04-12T00:17:58;15.60;94.00
59961;DHT22;55902;-37.980;-63.602;2023-04-12T00:20:26;15.50;94.50
59961;DHT22;55902;-37.980;-63.602;2023-04-12T00:22:54;15.50;94.30
59961;DHT22;55902;-37.980;-63.602;2023-04-12T00:25:23;15.40;94.10
59961;DHT22;55902;-37.980;-63.602;2023-04-12T00:27:50;15.40;94.30
59961;DHT22;55902;-37.980;-63.602;2023-04-12T00:30:18;15.30;94.40
59961;DHT22;55902;-37.980;-63.602;2023-04-12T00:32:50;15.30;94.10
59961;DHT22;55902;-37.980;-63.602;2023-04-12T00:35:20;15.20;93.80
59961;DHT22;55902;-37.980;-63.602;2023-04-12T00:37:47;15.10;94.20
59961;DHT22;55902;-37.980;-63.602;2023-04-12T00:40:14;15.10;94.70
59961;DHT22;55902;-37.980;-63.602;2023-04-12T00:42:41;15.00;94.70
59961;DHT22;55902;-37.980;-63.602;2023-04-12T00:45:09;15.00;95.00
59961;DHT22;55902;-37.980;-63.602;2023-04-12T00:47:36;14.90;94.90
59961;DHT22;55902;-37.980;-63.602;2023-04-12T00:50:06;14.80;94.80
59961;DHT22;55902;-37.980;-63.602;2023-04-12T00:52:34;14.80;95.60
59961;DHT22;55902;-37.980;-63.602;2023-04-12T00:55:05;14.80;95.40
59961;DHT22;55902;-37.980;-63.602;2023-04-12T00:57:39;14.70;95.40
59961;DHT22;55902;-37.980;-63.602;2023-04-12T01:00:08;14.70;95.40
59961;DHT22;55902;-37.980;-63.602;2023-04-12T01:02:43;14.60;95.60
59961;DHT22;55902;-37.980;-63.602;2023-04-12T01:05:17;14.60;95.50
59961;DHT22;55902;-37.980;-63.602;2023-04-12T01:10:25;14.50;95.40
59961;DHT22;55902;-37.980;-63.602;2023-04-12T01:15:35;14.40;95.70
59961;DHT22;55902;-37.980;-63.602;2023-04-12T01:18:11;14.40;95.20
59961;DHT22;55902;-37.980;-63.602;2023-04-12T01:21:04;14.30;95.60
59961;DHT22;55902;-37.980;-63.602;2023-04-12T01:26:40;14.20;95.50
59961;DHT22;55902;-37.980;-63.602;2023-04-12T01:29:15;14.20;95.30
59961;DHT22;55902;-37.980;-63.602;2023-04-12T01:31:57;14.20;95.20
59961;DHT22;55902;-37.980;-63.602;2023-04-12T01:34:27;14.10;95.40
59961;DHT22;55902;-37.980;-63.602;2023-04-12T01:36:55;14.10;95.30
59961;DHT22;55902;-37.980;-63.602;2023-04-12T01:39:22;14.00;95.70
59961;DHT22;55902;-37.980;-63.602;2023-04-12T01:41:49;14.00;95.50
59961;DHT22;55902;-37.980;-63.602;2023-04-12T01:44:16;13.90;95.70
59961;DHT22;55902;-37.980;-63.602;2023-04-12T01:46:44;13.90;95.50
59961;DHT22;55902;-37.980;-63.602;2023-04-12T01:49:13;13.90;95.30
59961;DHT22;55902;-37.980;-63.602;2023-04-12T01:51:47;13.90;95.90
59961;DHT22;55902;-37.980;-63.602;2023-04-12T01:54:25;13.80;96.00
59961;DHT22;55902;-37.980;-63.602;2023-04-12T01:56:59;13.80;95.80
59961;DHT22;55902;-37.980;-63.602;2023-04-12T01:59:47;13.70;95.50
59961;DHT22;55902;-37.980;-63.602;2023-04-12T02:02:16;13.70;95.50
59961;DHT22;55902;-37.980;-63.602;2023-04-12T02:04:44;13.60;96.30
59961;DHT22;55902;-37.980;-63.602;2023-04-12T02:07:11;13.60;96.30
59961;DHT22;55902;-37.980;-63.602;2023-04-12T02:09:38;13.60;96.60
59961;DHT22;55902;-37.980;-63.602;2023-04-12T02:12:06;13.50;96.40
59961;DHT22;55902;-37.980;-63.602;2023-04-12T02:17:55;13.50;96.30
59961;DHT22;55902;-37.980;-63.602;2023-04-12T02:20:25;13.60;96.80
59961;DHT22;55902;-37.980;-63.602;2023-04-12T02:22:52;13.60;97.00
59961;DHT22;55902;-37.980;-63.602;2023-04-12T02:25:21;13.70;96.30
59961;DHT22;55902;-37.980;-63.602;2023-04-12T02:27:51;13.60;96.10
59961;DHT22;55902;-37.980;-63.602;2023-04-12T02:30:21;13.70;96.20
59961;DHT22;55902;-37.980;-63.602;2023-04-12T02:32:48;13.60;96.10
59961;DHT22;55902;-37.980;-63.602;2023-04-12T02:35:16;13.60;96.30
59961;DHT22;55902;-37.980;-63.602;2023-04-12T02:37:46;13.60;95.60
59961;DHT22;55902;-37.980;-63.602;2023-04-12T02:40:14;13.50;95.00
59961;DHT22;55902;-37.980;-63.602;2023-04-12T02:42:41;13.50;95.30
59961;DHT22;55902;-37.980;-63.602;2023-04-12T03:17:31;12.80;96.10
59961;DHT22;55902;-37.980;-63.602;2023-04-12T03:20:03;13.10;97.50
59961;DHT22;55902;-37.980;-63.602;2023-04-12T03:22:33;13.10;97.00
59961;DHT22;55902;-37.980;-63.602;2023-04-12T03:25:00;13.20;96.50
59961;DHT22;55902;-37.980;-63.602;2023-04-12T03:27:28;13.20;96.90
59961;DHT22;55902;-37.980;-63.602;2023-04-12T03:29:55;13.20;96.70
59961;DHT22;55902;-37.980;-63.602;2023-04-12T03:32:22;13.20;96.70
59961;DHT22;55902;-37.980;-63.602;2023-04-12T03:34:49;13.20;96.90
59961;DHT22;55902;-37.980;-63.602;2023-04-12T03:37:16;13.20;97.00
59961;DHT22;55902;-37.980;-63.602;2023-04-12T03:39:43;13.20;97.90
59961;DHT22;55902;-37.980;-63.602;2023-04-12T03:42:13;13.20;97.80
59961;DHT22;55902;-37.980;-63.602;2023-04-12T03:44:41;13.20;97.50
59961;DHT22;55902;-37.980;-63.602;2023-04-12T03:47:08;13.30;97.40
59961;DHT22;55902;-37.980;-63.602;2023-04-12T03:49:35;13.40;97.90
59961;DHT22;55902;-37.980;-63.602;2023-04-12T03:52:05;13.40;97.20
59961;DHT22;55902;-37.980;-63.602;2023-04-12T03:54:32;13.40;98.20
59961;DHT22;55902;-37.980;-63.602;2023-04-12T03:56:59;13.40;98.20
59961;DHT22;55902;-37.980;-63.602;2023-04-12T03:59:28;13.50;98.40
59961;DHT22;55902;-37.980;-63.602;2023-04-12T04:01:55;13.50;98.40
59961;DHT22;55902;-37.980;-63.602;2023-04-12T04:04:23;13.60;97.70
59961;DHT22;55902;-37.980;-63.602;2023-04-12T04:10:12;13.70;98.30
59961;DHT22;55902;-37.980;-63.602;2023-04-12T04:12:39;13.80;98.90
59961;DHT22;55902;-37.980;-63.602;2023-04-12T04:15:06;13.90;98.90
59961;DHT22;55902;-37.980;-63.602;2023-04-12T04:21:14;14.00;99.20
59961;DHT22;55902;-37.980;-63.602;2023-04-12T04:23:41;14.10;99.50
59961;DHT22;55902;-37.980;-63.602;2023-04-12T04:26:13;14.10;99.40
59961;DHT22;55902;-37.980;-63.602;2023-04-12T04:28:45;14.10;99.30
59961;DHT22;55902;-37.980;-63.602;2023-04-12T04:31:12;14.10;99.40
59961;DHT22;55902;-37.980;-63.602;2023-04-12T04:33:42;14.20;99.40
59961;DHT22;55902;-37.980;-63.602;2023-04-12T04:36:10;14.20;98.80
59961;DHT22;55902;-37.980;-63.602;2023-04-12T04:38:37;14.20;99.40
59961;DHT22;55902;-37.980;-63.602;2023-04-12T04:41:05;14.30;99.70
59961;DHT22;55902;-37.980;-63.602;2023-04-12T04:43:34;14.30;99.90
59961;DHT22;55902;-37.980;-63.602;2023-04-12T04:46:05;14.40;99.90
59961;DHT22;55902;-37.980;-63.602;2023-04-12T04:48:32;14.40;99.90
59961;DHT22;55902;-37.980;-63.602;2023-04-12T04:50:59;14.40;99.90
59961;DHT22;55902;-37.980;-63.602;2023-04-12T04:53:27;14.40;99.90
59961;DHT22;55902;-37.980;-63.602;2023-04-12T04:55:58;14.40;99.90
59961;DHT22;55902;-37.980;-63.602;2023-04-12T04:58:25;14.50;99.90
59961;DHT22;55902;-37.980;-63.602;2023-04-12T05:00:55;14.50;99.90
59961;DHT22;55902;-37.980;-63.602;2023-04-12T05:03:22;14.50;99.90
59961;DHT22;55902;-37.980;-63.602;2023-04-12T05:05:54;14.50;99.90
59961;DHT22;55902;-37.980;-63.602;2023-04-12T05:08:23;14.50;99.90
59961;DHT22;55902;-37.980;-63.602;2023-04-12T05:10:51;14.60;99.90
59961;DHT22;55902;-37.980;-63.602;2023-04-12T05:13:19;14.60;99.90
59961;DHT22;55902;-37.980;-63.602;2023-04-12T05:15:48;14.60;99.90
59961;DHT22;55902;-37.980;-63.602;2023-04-12T05:18:15;14.60;99.90
59961;DHT22;55902;-37.980;-63.602;2023-04-12T05:20:43;14.60;99.90
59961;DHT22;55902;-37.980;-63.602;2023-04-12T05:23:10;14.50;99.90
59961;DHT22;55902;-37.980;-63.602;2023-04-12T05:25:42;14.50;99.90
59961;DHT22;55902;-37.980;-63.602;2023-04-12T05:28:09;14.50;99.90
59961;DHT22;55902;-37.980;-63.602;2023-04-12T05:30:39;14.50;99.90
59961;DHT22;55902;-37.980;-63.602;2023-04-12T05:33:06;14.50;99.90
59961;DHT22;55902;-37.980;-63.602;2023-04-12T05:35:33;14.50;99.90
59961;DHT22;55902;-37.980;-63.602;2023-04-12T05:38:00;14.40;99.90
59961;DHT22;55902;-37.980;-63.602;2023-04-12T05:40:28;14.40;99.90
59961;DHT22;55902;-37.980;-63.602;2023-04-12T05:42:57;14.40;99.90
59961;DHT22;55902;-37.980;-63.602;2023-04-12T05:45:24;14.40;99.90
59961;DHT22;55902;-37.980;-63.602;2023-04-12T05:47:51;14.40;99.90
59961;DHT22;55902;-37.980;-63.602;2023-04-12T06:00:24;14.40;99.90
59961;DHT22;55902;-37.980;-63.602;2023-04-12T06:02:51;14.40;99.90
59961;DHT22;55902;-37.980;-63.602;2023-04-12T06:05:18;14.40;99.90
59961;DHT22;55902;-37.980;-63.602;2023-04-12T06:07:45;14.40;99.90
59961;DHT22;55902;-37.980;-63.602;2023-04-12T06:10:14;14.40;99.90
59961;DHT22;55902;-37.980;-63.602;2023-04-12T06:12:42;14.40;99.90
59961;DHT22;55902;-37.980;-63.602;2023-04-12T06:15:09;14.40;99.90
59961;DHT22;55902;-37.980;-63.602;2023-04-12T06:17:37;14.40;99.90
59961;DHT22;55902;-37.980;-63.602;2023-04-12T06:20:07;14.40;99.90
59961;DHT22;55902;-37.980;-63.602;2023-04-12T06:22:36;14.40;99.90
59961;DHT22;55902;-37.980;-63.602;2023-04-12T06:25:04;14.40;99.90
59961;DHT22;55902;-37.980;-63.602;2023-04-12T06:27:31;14.40;99.90
59961;DHT22;55902;-37.980;-63.602;2023-04-12T06:29:58;14.40;99.90
59961;DHT22;55902;-37.980;-63.602;2023-04-12T06:32:25;14.40;99.90
59961;DHT22;55902;-37.980;-63.602;2023-04-12T06:34:53;14.40;99.90
59961;DHT22;55902;-37.980;-63.602;2023-04-12T06:37:20;14.40;99.90
59961;DHT22;55902;-37.980;-63.602;2023-04-12T06:39:47;14.40;99.90
59961;DHT22;55902;-37.980;-63.602;2023-04-12T06:42:15;14.40;99.90
59961;DHT22;55902;-37.980;-63.602;2023-04-12T06:44:42;14.40;99.90
59961;DHT22;55902;-37.980;-63.602;2023-04-12T06:47:09;14.40;99.90
59961;DHT22;55902;-37.980;-63.602;2023-04-12T06:49:36;14.40;99.90
59961;DHT22;55902;-37.980;-63.602;2023-04-12T06:52:03;14.40;99.90
59961;DHT22;55902;-37.980;-63.602;2023-04-12T06:54:30;14.40;99.90
59961;DHT22;55902;-37.980;-63.602;2023-04-12T06:56:57;14.40;99.90
59961;DHT22;55902;-37.980;-63.602;2023-04-12T06:59:28;14.40;99.90
59961;DHT22;55902;-37.980;-63.602;2023-04-12T07:01:55;14.40;99.90
59961;DHT22;55902;-37.980;-63.602;2023-04-12T07:04:22;14.30;99.90
59961;DHT22;55902;-37.980;-63.602;2023-04-12T07:06:48;14.40;99.90
59961;DHT22;55902;-37.980;-63.602;2023-04-12T07:09:15;14.30;99.90
59961;DHT22;55902;-37.980;-63.602;2023-04-12T07:11:42;14.30;99.90
59961;DHT22;55902;-37.980;-63.602;2023-04-12T07:14:09;14.30;99.90
59961;DHT22;55902;-37.980;-63.602;2023-04-12T07:16:36;14.30;99.90
59961;DHT22;55902;-37.980;-63.602;2023-04-12T07:19:03;14.30;99.90
59961;DHT22;55902;-37.980;-63.602;2023-04-12T07:21:30;14.20;99.90
59961;DHT22;55902;-37.980;-63.602;2023-04-12T07:23:57;14.20;99.90
59961;DHT22;55902;-37.980;-63.602;2023-04-12T07:26:24;14.20;99.90
59961;DHT22;55902;-37.980;-63.602;2023-04-12T07:28:51;14.20;99.90
59961;DHT22;55902;-37.980;-63.602;2023-04-12T07:31:18;14.20;99.90
59961;DHT22;55902;-37.980;-63.602;2023-04-12T07:33:45;14.20;99.90
59961;DHT22;55902;-37.980;-63.602;2023-04-12T07:36:12;14.20;99.90
59961;DHT22;55902;-37.980;-63.602;2023-04-12T07:38:41;14.20;99.90
59961;DHT22;55902;-37.980;-63.602;2023-04-12T07:41:08;14.20;99.90
59961;DHT22;55902;-37.980;-63.602;2023-04-12T07:43:35;14.20;99.90
59961;DHT22;55902;-37.980;-63.602;2023-04-12T07:46:02;14.20;99.90
59961;DHT22;55902;-37.980;-63.602;2023-04-12T07:48:33;14.20;99.90
59961;DHT22;55902;-37.980;-63.602;2023-04-12T07:51:03;14.20;99.90
59961;DHT22;55902;-37.980;-63.602;2023-04-12T07:53:30;14.20;99.90
59961;DHT22;55902;-37.980;-63.602;2023-04-12T07:55:57;14.20;99.90
59961;DHT22;55902;-37.980;-63.602;2023-04-12T07:58:24;14.20;99.90
59961;DHT22;55902;-37.980;-63.602;2023-04-12T08:00:52;14.20;99.90
59961;DHT22;55902;-37.980;-63.602;2023-04-12T08:03:19;14.20;99.90
59961;DHT22;55902;-37.980;-63.602;2023-04-12T08:05:46;14.10;99.90
59961;DHT22;55902;-37.980;-63.602;2023-04-12T08:08:21;14.10;99.90
59961;DHT22;55902;-37.980;-63.602;2023-04-12T08:10:49;14.10;99.90
59961;DHT22;55902;-37.980;-63.602;2023-04-12T08:13:16;14.10;99.90
59961;DHT22;55902;-37.980;-63.602;2023-04-12T08:15:43;14.10;99.90
59961;DHT22;55902;-37.980;-63.602;2023-04-12T08:18:12;14.10;99.90
59961;DHT22;55902;-37.980;-63.602;2023-04-12T08:20:39;14.10;99.90
59961;DHT22;55902;-37.980;-63.602;2023-04-12T08:23:06;14.10;99.90
59961;DHT22;55902;-37.980;-63.602;2023-04-12T08:25:34;14.10;99.90
59961;DHT22;55902;-37.980;-63.602;2023-04-12T08:28:01;14.10;99.90
59961;DHT22;55902;-37.980;-63.602;2023-04-12T08:30:29;14.10;99.90
59961;DHT22;55902;-37.980;-63.602;2023-04-12T08:32:56;14.00;99.90
59961;DHT22;55902;-37.980;-63.602;2023-04-12T08:35:23;14.10;99.90
59961;DHT22;55902;-37.980;-63.602;2023-04-12T08:37:50;14.10;99.90
59961;DHT22;55902;-37.980;-63.602;2023-04-12T08:40:17;14.00;99.90
59961;DHT22;55902;-37.980;-63.602;2023-04-12T08:42:44;14.00;99.90
59961;DHT22;55902;-37.980;-63.602;2023-04-12T08:45:12;13.90;99.90
59961;DHT22;55902;-37.980;-63.602;2023-04-12T08:47:41;13.90;99.90
59961;DHT22;55902;-37.980;-63.602;2023-04-12T08:50:10;13.80;99.90
59961;DHT22;55902;-37.980;-63.602;2023-04-12T08:52:39;13.80;99.90
59961;DHT22;55902;-37.980;-63.602;2023-04-12T08:55:08;13.80;99.90
59961;DHT22;55902;-37.980;-63.602;2023-04-12T08:57:36;13.70;99.90
59961;DHT22;55902;-37.980;-63.602;2023-04-12T09:00:07;13.70;99.90
59961;DHT22;55902;-37.980;-63.602;2023-04-12T09:02:38;13.60;99.90
59961;DHT22;55902;-37.980;-63.602;2023-04-12T09:05:08;13.50;99.90
59961;DHT22;55902;-37.980;-63.602;2023-04-12T09:07:35;13.50;99.90
59961;DHT22;55902;-37.980;-63.602;2023-04-12T09:10:02;13.40;99.90
59961;DHT22;55902;-37.980;-63.602;2023-04-12T09:12:33;13.40;99.90
59961;DHT22;55902;-37.980;-63.602;2023-04-12T09:15:12;13.30;99.90
59961;DHT22;55902;-37.980;-63.602;2023-04-12T09:17:40;13.30;99.90
59961;DHT22;55902;-37.980;-63.602;2023-04-12T09:22:44;13.10;99.90
59961;DHT22;55902;-37.980;-63.602;2023-04-12T09:25:12;13.10;99.90
59961;DHT22;55902;-37.980;-63.602;2023-04-12T09:27:50;13.00;99.90
59961;DHT22;55902;-37.980;-63.602;2023-04-12T09:30:19;12.90;99.90
59961;DHT22;55902;-37.980;-63.602;2023-04-12T09:32:46;12.80;99.90
59961;DHT22;55902;-37.980;-63.602;2023-04-12T09:35:20;12.80;99.90
59961;DHT22;55902;-37.980;-63.602;2023-04-12T09:38:06;12.80;99.90
59961;DHT22;55902;-37.980;-63.602;2023-04-12T09:40:38;12.70;99.90
59961;DHT22;55902;-37.980;-63.602;2023-04-12T09:43:09;12.60;99.90
59961;DHT22;55902;-37.980;-63.602;2023-04-12T09:45:39;12.60;99.90
59961;DHT22;55902;-37.980;-63.602;2023-04-12T09:48:23;12.50;99.90
59961;DHT22;55902;-37.980;-63.602;2023-04-12T09:50:58;12.50;99.90
59961;DHT22;55902;-37.980;-63.602;2023-04-12T09:53:26;12.50;99.90
59961;DHT22;55902;-37.980;-63.602;2023-04-12T09:55:54;12.50;99.90
59961;DHT22;55902;-37.980;-63.602;2023-04-12T09:58:24;12.50;99.90
59961;DHT22;55902;-37.980;-63.602;2023-04-12T10:00:52;12.50;99.90
59961;DHT22;55902;-37.980;-63.602;2023-04-12T10:03:23;12.50;99.90
59961;DHT22;55902;-37.980;-63.602;2023-04-12T10:05:50;12.50;99.90
59961;DHT22;55902;-37.980;-63.602;2023-04-12T10:08:38;12.50;99.90
59961;DHT22;55902;-37.980;-63.602;2023-04-12T10:11:06;12.60;99.90
59961;DHT22;55902;-37.980;-63.602;2023-04-12T10:13:35;12.60;99.90
59961;DHT22;55902;-37.980;-63.602;2023-04-12T10:16:04;12.60;99.90
59961;DHT22;55902;-37.980;-63.602;2023-04-12T10:18:34;12.70;99.90
59961;DHT22;55902;-37.980;-63.602;2023-04-12T10:21:08;12.70;99.90
59961;DHT22;55902;-37.980;-63.602;2023-04-12T10:23:37;12.60;99.90
59961;DHT22;55902;-37.980;-63.602;2023-04-12T10:26:14;12.60;99.90
59961;DHT22;55902;-37.980;-63.602;2023-04-12T10:28:51;12.60;99.90
59961;DHT22;55902;-37.980;-63.602;2023-04-12T10:34:34;12.60;99.90
59961;DHT22;55902;-37.980;-63.602;2023-04-12T10:37:01;12.60;99.90
59961;DHT22;55902;-37.980;-63.602;2023-04-12T10:39:40;12.60;99.90
59961;DHT22;55902;-37.980;-63.602;2023-04-12T10:42:26;12.60;99.90
59961;DHT22;55902;-37.980;-63.602;2023-04-12T10:44:56;12.60;99.90
59961;DHT22;55902;-37.980;-63.602;2023-04-12T10:47:55;12.50;99.90
59961;DHT22;55902;-37.980;-63.602;2023-04-12T10:50:30;12.60;99.90
59961;DHT22;55902;-37.980;-63.602;2023-04-12T10:55:50;12.50;99.90
59961;DHT22;55902;-37.980;-63.602;2023-04-12T11:01:31;12.60;99.90
59961;DHT22;55902;-37.980;-63.602;2023-04-12T11:14:37;12.50;99.90
59961;DHT22;55902;-37.980;-63.602;2023-04-12T11:19:43;12.50;99.90
59961;DHT22;55902;-37.980;-63.602;2023-04-12T11:22:13;12.60;99.90
59961;DHT22;55902;-37.980;-63.602;2023-04-12T11:24:58;12.60;99.90
59961;DHT22;55902;-37.980;-63.602;2023-04-12T11:27:26;12.70;99.90
59961;DHT22;55902;-37.980;-63.602;2023-04-12T11:29:55;12.70;99.90
59961;DHT22;55902;-37.980;-63.602;2023-04-12T11:32:24;12.80;99.90
59961;DHT22;55902;-37.980;-63.602;2023-04-12T11:34:55;12.90;99.90
59961;DHT22;55902;-37.980;-63.602;2023-04-12T11:37:23;13.00;99.90
59961;DHT22;55902;-37.980;-63.602;2023-04-12T11:39:55;13.00;99.90
59961;DHT22;55902;-37.980;-63.602;2023-04-12T11:42:28;13.00;99.90
59961;DHT22;55902;-37.980;-63.602;2023-04-12T11:44:56;13.10;99.90
59961;DHT22;55902;-37.980;-63.602;2023-04-12T11:47:25;13.10;99.90
59961;DHT22;55902;-37.980;-63.602;2023-04-12T11:50:05;13.10;99.90
59961;DHT22;55902;-37.980;-63.602;2023-04-12T11:52:33;13.20;99.90
59961;DHT22;55902;-37.980;-63.602;2023-04-12T11:55:05;13.20;99.90
59961;DHT22;55902;-37.980;-63.602;2023-04-12T11:57:37;13.20;99.90
59961;DHT22;55902;-37.980;-63.602;2023-04-12T12:00:05;13.30;99.90
59961;DHT22;55902;-37.980;-63.602;2023-04-12T12:02:33;13.50;99.90
59961;DHT22;55902;-37.980;-63.602;2023-04-12T12:05:09;13.90;99.90
59961;DHT22;55902;-37.980;-63.602;2023-04-12T12:07:36;14.20;99.90
59961;DHT22;55902;-37.980;-63.602;2023-04-12T12:10:20;14.50;99.90
59961;DHT22;55902;-37.980;-63.602;2023-04-12T12:13:23;14.70;99.90
59961;DHT22;55902;-37.980;-63.602;2023-04-12T12:15:53;15.00;99.90
59961;DHT22;55902;-37.980;-63.602;2023-04-12T12:18:24;15.30;99.90
59961;DHT22;55902;-37.980;-63.602;2023-04-12T12:20:53;15.70;99.90
59961;DHT22;55902;-37.980;-63.602;2023-04-12T12:23:30;16.10;99.60
59961;DHT22;55902;-37.980;-63.602;2023-04-12T12:26:01;16.30;99.60
59961;DHT22;55902;-37.980;-63.602;2023-04-12T12:28:38;16.60;99.00
59961;DHT22;55902;-37.980;-63.602;2023-04-12T12:31:12;17.00;98.10
59961;DHT22;55902;-37.980;-63.602;2023-04-12T12:33:46;17.10;97.40
59961;DHT22;55902;-37.980;-63.602;2023-04-12T12:36:29;17.30;97.50
59961;DHT22;55902;-37.980;-63.602;2023-04-12T12:41:33;17.40;96.80
59961;DHT22;55902;-37.980;-63.602;2023-04-12T12:44:01;17.60;96.30
59961;DHT22;55902;-37.980;-63.602;2023-04-12T12:46:28;17.60;95.80
59961;DHT22;55902;-37.980;-63.602;2023-04-12T12:48:55;17.70;95.60
59961;DHT22;55902;-37.980;-63.602;2023-04-12T12:51:22;17.80;96.00
59961;DHT22;55902;-37.980;-63.602;2023-04-12T12:53:50;18.10;96.60
59961;DHT22;55902;-37.980;-63.602;2023-04-12T12:56:17;18.30;95.40
59961;DHT22;55902;-37.980;-63.602;2023-04-12T12:58:44;18.20;94.70
59961;DHT22;55902;-37.980;-63.602;2023-04-12T13:01:12;18.20;94.80
59961;DHT22;55902;-37.980;-63.602;2023-04-12T13:03:39;18.20;93.80
59961;DHT22;55902;-37.980;-63.602;2023-04-12T13:06:06;18.20;94.00
59961;DHT22;55902;-37.980;-63.602;2023-04-12T13:08:38;18.10;94.20
59961;DHT22;55902;-37.980;-63.602;2023-04-12T13:11:05;17.90;93.60
59961;DHT22;55902;-37.980;-63.602;2023-04-12T13:13:33;17.80;93.90
59961;DHT22;55902;-37.980;-63.602;2023-04-12T13:16:00;17.90;94.20
59961;DHT22;55902;-37.980;-63.602;2023-04-12T13:18:27;18.00;94.00
59961;DHT22;55902;-37.980;-63.602;2023-04-12T13:20:54;18.20;93.50
59961;DHT22;55902;-37.980;-63.602;2023-04-12T13:23:21;18.50;93.80
59961;DHT22;55902;-37.980;-63.602;2023-04-12T13:25:58;18.90;93.10
59961;DHT22;55902;-37.980;-63.602;2023-04-12T13:28:26;19.20;92.50
59961;DHT22;55902;-37.980;-63.602;2023-04-12T13:30:54;19.40;90.50
59961;DHT22;55902;-37.980;-63.602;2023-04-12T13:33:21;19.50;91.10
59961;DHT22;55902;-37.980;-63.602;2023-04-12T13:36:09;19.30;90.40
59961;DHT22;55902;-37.980;-63.602;2023-04-12T13:38:36;19.10;91.00
59961;DHT22;55902;-37.980;-63.602;2023-04-12T13:41:04;18.80;90.90
59961;DHT22;55902;-37.980;-63.602;2023-04-12T13:43:31;18.70;91.00
59961;DHT22;55902;-37.980;-63.602;2023-04-12T13:45:58;18.60;90.50
59961;DHT22;55902;-37.980;-63.602;2023-04-12T13:48:25;18.50;91.00
59961;DHT22;55902;-37.980;-63.602;2023-04-12T13:50:53;18.50;91.70
59961;DHT22;55902;-37.980;-63.602;2023-04-12T13:53:21;18.40;91.20
59961;DHT22;55902;-37.980;-63.602;2023-04-12T13:55:51;18.40;91.20
59961;DHT22;55902;-37.980;-63.602;2023-04-12T13:58:18;18.60;91.20
59961;DHT22;55902;-37.980;-63.602;2023-04-12T14:00:50;18.70;91.40
59961;DHT22;55902;-37.980;-63.602;2023-04-12T14:03:28;18.80;91.00
59961;DHT22;55902;-37.980;-63.602;2023-04-12T14:06:09;19.00;90.60
59961;DHT22;55902;-37.980;-63.602;2023-04-12T14:09:22;19.20;89.60
59961;DHT22;55902;-37.980;-63.602;2023-04-12T14:12:03;19.10;88.20
59961;DHT22;55902;-37.980;-63.602;2023-04-12T14:14:31;19.00;87.40
59961;DHT22;55902;-37.980;-63.602;2023-04-12T14:16:58;19.00;90.10
59961;DHT22;55902;-37.980;-63.602;2023-04-12T14:19:27;18.90;90.10
59961;DHT22;55902;-37.980;-63.602;2023-04-12T14:21:54;18.90;89.20
59961;DHT22;55902;-37.980;-63.602;2023-04-12T14:24:23;19.00;89.60
59961;DHT22;55902;-37.980;-63.602;2023-04-12T14:26:52;18.90;88.20
59961;DHT22;55902;-37.980;-63.602;2023-04-12T14:29:20;18.90;87.50
59961;DHT22;55902;-37.980;-63.602;2023-04-12T14:31:48;19.00;88.90
59961;DHT22;55902;-37.980;-63.602;2023-04-12T14:34:16;19.60;88.80
59961;DHT22;55902;-37.980;-63.602;2023-04-12T14:36:45;20.50;88.20
59961;DHT22;55902;-37.980;-63.602;2023-04-12T14:39:13;21.00;84.70
59961;DHT22;55902;-37.980;-63.602;2023-04-12T14:41:41;21.40;82.50
59961;DHT22;55902;-37.980;-63.602;2023-04-12T14:44:09;21.60;81.30
59961;DHT22;55902;-37.980;-63.602;2023-04-12T14:46:36;21.50;78.40
59961;DHT22;55902;-37.980;-63.602;2023-04-12T14:49:03;21.50;79.30
59961;DHT22;55902;-37.980;-63.602;2023-04-12T14:51:32;21.90;79.20
59961;DHT22;55902;-37.980;-63.602;2023-04-12T14:54:00;22.20;76.80
59961;DHT22;55902;-37.980;-63.602;2023-04-12T14:56:28;22.60;79.10
59961;DHT22;55902;-37.980;-63.602;2023-04-12T14:58:57;22.80;75.40
59961;DHT22;55902;-37.980;-63.602;2023-04-12T15:01:47;23.00;73.50
59961;DHT22;55902;-37.980;-63.602;2023-04-12T15:04:16;23.00;73.90
59961;DHT22;55902;-37.980;-63.602;2023-04-12T15:06:43;23.10;74.90
59961;DHT22;55902;-37.980;-63.602;2023-04-12T15:09:11;23.00;74.40
59961;DHT22;55902;-37.980;-63.602;2023-04-12T15:11:39;23.00;73.20
59961;DHT22;55902;-37.980;-63.602;2023-04-12T15:14:13;23.00;72.60
59961;DHT22;55902;-37.980;-63.602;2023-04-12T15:16:46;23.10;72.60
59961;DHT22;55902;-37.980;-63.602;2023-04-12T15:19:16;23.10;72.70
59961;DHT22;55902;-37.980;-63.602;2023-04-12T15:21:45;23.00;73.40
59961;DHT22;55902;-37.980;-63.602;2023-04-12T15:24:12;22.80;72.40
59961;DHT22;55902;-37.980;-63.602;2023-04-12T15:26:42;22.70;74.60
59961;DHT22;55902;-37.980;-63.602;2023-04-12T15:29:16;23.10;73.40
59961;DHT22;55902;-37.980;-63.602;2023-04-12T15:31:43;23.40;69.70
59961;DHT22;55902;-37.980;-63.602;2023-04-12T15:34:11;23.70;71.60
59961;DHT22;55902;-37.980;-63.602;2023-04-12T15:36:41;24.00;70.30
59961;DHT22;55902;-37.980;-63.602;2023-04-12T15:39:11;24.30;66.50
59961;DHT22;55902;-37.980;-63.602;2023-04-12T15:41:39;24.50;66.10
59961;DHT22;55902;-37.980;-63.602;2023-04-12T15:44:09;24.60;67.10
59961;DHT22;55902;-37.980;-63.602;2023-04-12T15:46:39;24.40;67.00
59961;DHT22;55902;-37.980;-63.602;2023-04-12T15:49:07;24.40;65.50
59961;DHT22;55902;-37.980;-63.602;2023-04-12T15:51:37;24.50;65.30
59961;DHT22;55902;-37.980;-63.602;2023-04-12T15:54:05;24.50;65.70
59961;DHT22;55902;-37.980;-63.602;2023-04-12T15:56:32;24.80;67.40
59961;DHT22;55902;-37.980;-63.602;2023-04-12T15:59:00;25.20;66.40
59961;DHT22;55902;-37.980;-63.602;2023-04-12T16:01:28;25.40;63.90
59961;DHT22;55902;-37.980;-63.602;2023-04-12T16:03:55;25.40;66.60
59961;DHT22;55902;-37.980;-63.602;2023-04-12T16:06:22;25.00;63.20
59961;DHT22;55902;-37.980;-63.602;2023-04-12T16:08:51;24.60;66.50
59961;DHT22;55902;-37.980;-63.602;2023-04-12T16:11:21;24.20;66.00
59961;DHT22;55902;-37.980;-63.602;2023-04-12T16:13:51;23.80;66.40
59961;DHT22;55902;-37.980;-63.602;2023-04-12T16:16:21;23.50;66.10
59961;DHT22;55902;-37.980;-63.602;2023-04-12T16:18:48;23.20;66.00
59961;DHT22;55902;-37.980;-63.602;2023-04-12T16:21:17;23.20;64.40
59961;DHT22;55902;-37.980;-63.602;2023-04-12T16:23:46;23.30;63.00
59961;DHT22;55902;-37.980;-63.602;2023-04-12T16:26:15;23.30;64.20
59961;DHT22;55902;-37.980;-63.602;2023-04-12T16:28:47;23.30;63.70
59961;DHT22;55902;-37.980;-63.602;2023-04-12T16:31:15;23.50;63.20